Weather at Snowy Range Airfield

Public forecast

Using degrees Celsius for public forecast. Weather courtesy of forecast.io.

Closest aviation weather report (METAR) to Snowy Range Airfield

Closest report is Wangaratta Airport, 60.2 nm (111.5 km) NNW. Retrieved 2020/12/03 05:00 UTC (60 minutes ago):

YWGT 030500Z AUTO 22007KT //// // ////// 27/M03 Q////

Closest aviation forecast (TAF) to Snowy Range Airfield

Closest forecast is Wangaratta Airport, 60.2 nm (111.5 km) NNW. Retrieved 2020-12-03 02:33 UTC (3 hours ago):

TAF YWGT 030122Z 0302/0314 25008KT CAVOK